Cedar Valley, Utah
Current Conditions -  °F | °C
As of 9:50 AM on Thursday 27 Nov 2014 (Local Time) from KPVU Reporting Station
Overcast Overcast  
Wind Chill: 43°   Ceiling: 13000
Heat Index: 43°   Visibility: 15mi
Dew Point: 28°   Wind: 0mph
Humidity: 57%   Direction: NA
Pressure: 30.37"   Gusts: NA
Location:  40.29°N, 112.07°W
Report Text: KPVU 271650Z 00000KT 15SM OVC130 06/M02 A3037
Loading
Personal Weather Stations






























Interactive Weather Map New forecast layout! Learn more

10-Day Weather Forecast

Advertisements
Track Severe Weather on mobile